Time;durP1;ratioP1;P1;durP2;ratioP2;P2;SDS_P1;SDS_P2;PMS_P1;PMS_P2;Temp;Humidity;BMP_temperature;BMP_pressure;BME280_temperature;BME280_humidity;BME280_pressure;Samples;Min_cycle;Max_cycle;Signal;HPM_P1;HPM_P2
2024/01/27 00:01:47;;;;;;;6.55;1.52;;;;;;;5.93;96.89;102079.47;5057613;28;20055;-62
2024/01/27 00:04:14;;;;;;;6.43;1.13;;;;;;;5.93;96.68;102087.72;5058623;28;20049;-62
2024/01/27 00:06:41;;;;;;;10.20;2.15;;;;;;;5.93;96.97;102090.47;5057020;28;20799;-62
2024/01/27 00:09:09;;;;;;;11.77;1.23;;;;;;;5.94;96.96;102083.84;5059463;28;20523;-62
2024/01/27 00:11:36;;;;;;;9.45;2.10;;;;;;;5.97;97.15;102095.13;5059360;28;20761;-62
2024/01/27 00:14:04;;;;;;;17.95;2.72;;;;;;;6.01;97.01;102089.88;5059265;28;20450;-63
2024/01/27 00:16:31;;;;;;;6.60;1.40;;;;;;;6.04;96.94;102089.28;5060886;28;20048;-63
2024/01/27 00:18:58;;;;;;;8.50;1.88;;;;;;;6.04;96.95;102089.28;5054633;28;20047;-63
2024/01/27 00:21:26;;;;;;;8.68;1.27;;;;;;;6.04;96.96;102089.28;5056430;28;20048;-63
2024/01/27 00:23:53;;;;;;;4.38;1.27;;;;;;;6.03;96.55;102087.66;5061285;28;20056;-63
2024/01/27 00:26:21;;;;;;;7.40;1.23;;;;;;;6.04;97.10;102081.03;5059810;28;20054;-63
2024/01/27 00:28:48;;;;;;;11.90;2.63;;;;;;;6.05;97.04;102085.44;5052093;28;20063;-63
2024/01/27 00:31:15;;;;;;;6.43;1.77;;;;;;;6.05;97.28;102077.19;5059381;28;20044;-63
2024/01/27 00:33:43;;;;;;;4.85;1.02;;;;;;;6.06;97.32;102076.91;5053518;28;20045;-63
2024/01/27 00:36:10;;;;;;;4.47;1.73;;;;;;;6.09;97.20;102070.84;5052080;28;20076;-62
2024/01/27 00:38:38;;;;;;;8.27;1.70;;;;;;;6.09;96.84;102067.28;5064772;28;20063;-63
2024/01/27 00:41:06;;;;;;;10.63;1.98;;;;;;;6.09;96.82;102070.84;5058152;28;20053;-63
2024/01/27 00:43:33;;;;;;;7.05;1.30;;;;;;;6.08;97.27;102063.72;5058947;28;20044;-63
2024/01/27 00:46:00;;;;;;;10.73;1.63;;;;;;;6.10;97.21;102055.19;5055254;28;20060;-63
2024/01/27 00:48:28;;;;;;;8.43;1.42;;;;;;;6.11;97.23;102067.84;5061827;28;20052;-63
2024/01/27 00:50:55;;;;;;;10.23;2.38;;;;;;;6.11;97.22;102062.34;5055948;28;20048;-63
2024/01/27 00:53:23;;;;;;;6.32;1.25;;;;;;;6.11;97.25;102056.84;5054802;28;20059;-63
2024/01/27 00:55:50;;;;;;;11.07;2.70;;;;;;;6.11;97.27;102043.09;5064280;28;20124;-63
2024/01/27 00:58:17;;;;;;;10.45;1.35;;;;;;;6.11;97.34;102040.34;5057683;28;20044;-63
2024/01/27 01:00:45;;;;;;;7.75;1.20;;;;;;;6.11;97.12;102045.84;5054322;28;20056;-62
2024/01/27 01:03:12;;;;;;;8.23;1.45;;;;;;;6.10;97.43;102044.19;5069682;28;20044;-63
2024/01/27 01:05:40;;;;;;;6.95;0.93;;;;;;;6.10;97.24;102027.69;5061694;28;20052;-62
2024/01/27 01:08:07;;;;;;;10.57;2.13;;;;;;;6.12;97.20;102029.03;5061986;28;20045;-63
2024/01/27 01:10:35;;;;;;;6.45;2.15;;;;;;;6.13;97.31;102032.63;5065112;28;20052;-62
2024/01/27 01:13:02;;;;;;;10.43;1.45;;;;;;;6.15;97.19;102019.41;5059091;28;20071;-62
2024/01/27 01:15:29;;;;;;;6.85;1.75;;;;;;;6.16;97.20;102015.56;5051574;28;20049;-62
2024/01/27 01:17:57;;;;;;;5.82;1.17;;;;;;;6.18;97.05;102018.00;5050432;28;20068;-62
2024/01/27 01:20:26;;;;;;;6.60;1.30;;;;;;;6.19;96.97;102022.41;5050170;28;20475;-62
2024/01/27 01:22:53;;;;;;;8.35;1.50;;;;;;;6.21;96.96;102023.78;5050786;28;20045;-63
2024/01/27 01:25:21;;;;;;;8.40;1.25;;;;;;;6.22;97.06;102021.84;5047930;28;20667;-62
2024/01/27 01:27:49;;;;;;;10.73;1.80;;;;;;;6.21;96.75;102029.28;5052586;28;20048;-62
2024/01/27 01:30:16;;;;;;;5.55;1.15;;;;;;;6.20;96.99;102022.13;5051115;28;20052;-62
2024/01/27 01:32:44;;;;;;;5.82;1.80;;;;;;;6.20;97.04;102002.88;5062043;28;20086;-62
2024/01/27 01:35:11;;;;;;;4.78;0.80;;;;;;;6.22;96.91;102008.94;5050280;28;20048;-63
2024/01/27 01:37:39;;;;;;;4.20;1.30;;;;;;;6.22;96.96;102008.94;5057372;28;20060;-63
2024/01/27 01:40:07;;;;;;;6.32;1.27;;;;;;;6.21;96.79;101999.03;5046450;28;20048;-63
2024/01/27 01:42:34;;;;;;;5.45;1.13;;;;;;;6.20;96.67;101982.78;5053133;28;20055;-62
2024/01/27 01:45:02;;;;;;;4.22;1.35;;;;;;;6.20;96.90;101985.53;5057273;28;20052;-62
2024/01/27 01:47:29;;;;;;;7.07;1.13;;;;;;;6.20;96.93;101977.28;5047289;28;20057;-63
2024/01/27 01:49:56;;;;;;;8.30;0.70;;;;;;;6.21;96.68;101978.94;5046814;28;20051;-62
2024/01/27 01:52:24;;;;;;;9.75;1.23;;;;;;;6.21;96.86;101979.78;5044745;28;20059;-62
2024/01/27 01:54:51;;;;;;;8.02;1.50;;;;;;;6.22;96.75;101983.34;5046908;28;20692;-62
2024/01/27 01:57:18;;;;;;;3.58;0.70;;;;;;;6.23;96.67;101977.56;5046334;28;20053;-62
2024/01/27 01:59:47;;;;;;;3.95;1.00;;;;;;;6.25;96.45;101980.84;5058763;28;20053;-63
2024/01/27 02:02:16;;;;;;;3.97;1.05;;;;;;;6.23;96.44;101985.81;5046373;28;20462;-63
2024/01/27 02:04:45;;;;;;;7.90;1.00;;;;;;;6.23;96.34;101983.06;5046246;28;20565;-62
2024/01/27 02:07:14;;;;;;;4.07;1.00;;;;;;;6.24;96.63;101972.88;5046400;28;20041;-62
2024/01/27 02:09:41;;;;;;;7.25;1.10;;;;;;;6.25;96.49;101983.59;5045926;28;20048;-62
2024/01/27 02:12:08;;;;;;;7.80;3.55;;;;;;;6.24;96.32;101973.72;5046005;28;20049;-62
2024/01/27 02:14:36;;;;;;;13.75;2.42;;;;;;;6.27;96.20;101986.06;5061202;28;20478;-62
2024/01/27 02:17:04;;;;;;;8.93;2.35;;;;;;;6.25;96.21;101969.84;5046911;28;20045;-62
2024/01/27 02:19:31;;;;;;;6.13;1.00;;;;;;;6.26;96.10;101973.41;5060982;28;20384;-62
2024/01/27 02:21:59;;;;;;;7.22;1.10;;;;;;;6.28;95.95;101976.69;5050849;28;20052;-62
2024/01/27 02:24:28;;;;;;;3.38;0.90;;;;;;;6.29;95.84;101968.16;5062840;28;20538;-63
2024/01/27 02:26:56;;;;;;;6.57;0.90;;;;;;;6.32;95.73;101975.84;5046201;28;20046;-62
2024/01/27 02:29:23;;;;;;;4.53;0.90;;;;;;;6.34;95.46;101981.06;5044040;28;20059;-62
2024/01/27 02:31:50;;;;;;;14.00;1.63;;;;;;;6.35;95.39;101986.28;5045733;28;20052;-62
2024/01/27 02:34:18;;;;;;;7.80;0.98;;;;;;;6.33;95.31;101979.44;5045795;28;20045;-62
2024/01/27 02:36:45;;;;;;;8.27;2.55;;;;;;;6.35;95.50;101985.47;5046147;28;20045;-62
2024/01/27 02:39:12;;;;;;;3.95;1.10;;;;;;;6.34;95.25;101984.63;5049209;28;20037;-62
2024/01/27 02:41:40;;;;;;;9.85;1.10;;;;;;;6.35;95.06;101974.44;5055028;28;20538;-63
2024/01/27 02:44:07;;;;;;;2.97;0.70;;;;;;;6.37;95.08;101969.47;5059121;28;20051;-62
2024/01/27 02:46:35;;;;;;;8.90;1.17;;;;;;;6.40;94.69;101972.47;5045823;28;20049;-63
2024/01/27 02:49:02;;;;;;;7.68;1.08;;;;;;;6.41;94.76;101963.09;5049190;28;20048;-62
2024/01/27 02:51:29;;;;;;;4.32;1.05;;;;;;;6.41;94.49;101954.84;5056915;28;20057;-62
2024/01/27 02:53:57;;;;;;;9.25;1.30;;;;;;;6.41;94.42;101960.34;5049032;28;20519;-63
2024/01/27 02:56:24;;;;;;;5.25;1.52;;;;;;;6.42;94.33;101959.25;5049681;28;20052;-62
2024/01/27 02:58:51;;;;;;;6.85;0.73;;;;;;;6.39;94.40;101940.56;5055410;28;20048;-62
2024/01/27 03:01:19;;;;;;;4.35;0.80;;;;;;;6.40;94.24;101941.41;5111080;22;20062;-63
2024/01/27 03:03:46;;;;;;;5.57;0.88;;;;;;;6.41;94.06;101952.09;4989844;28;20407;-64
2024/01/27 03:06:14;;;;;;;5.03;2.10;;;;;;;6.42;94.04;101937.25;4990806;28;20050;-64
2024/01/27 03:08:41;;;;;;;7.10;0.80;;;;;;;6.43;93.92;101938.91;4990503;28;20041;-64
2024/01/27 03:11:08;;;;;;;3.22;1.75;;;;;;;6.45;93.93;101936.69;4990654;28;20057;-63
2024/01/27 03:13:36;;;;;;;11.60;1.10;;;;;;;6.45;93.63;101944.94;4989975;28;20046;-64
2024/01/27 03:16:09;;;;;;;3.53;0.85;;;;;;;6.43;93.62;101949.91;4990471;28;20075;-64
2024/01/27 03:18:37;;;;;;;5.07;0.90;;;;;;;6.42;93.62;101940.00;4990610;28;20062;-64
2024/01/27 03:21:07;;;;;;;2.10;0.80;;;;;;;6.42;93.62;101947.44;4990218;28;20050;-64
2024/01/27 03:23:35;;;;;;;4.28;0.93;;;;;;;6.43;93.67;101943.59;4989009;28;20599;-64
2024/01/27 03:26:06;;;;;;;9.07;1.00;;;;;;;6.42;93.51;101931.75;4990287;28;20054;-64
2024/01/27 03:28:33;;;;;;;7.25;1.45;;;;;;;6.43;93.55;101935.34;4990155;28;20051;-64
2024/01/27 03:31:01;;;;;;;4.68;1.02;;;;;;;6.44;93.59;101943.28;4990049;28;20054;-65
2024/01/27 03:33:31;;;;;;;5.90;1.25;;;;;;;6.46;93.54;101943.00;4989889;28;20065;-64
2024/01/27 03:35:59;;;;;;;3.75;1.33;;;;;;;6.45;93.37;101933.09;4989511;28;20057;-64
2024/01/27 03:38:26;;;;;;;6.03;1.52;;;;;;;6.42;93.41;101934.50;4988577;28;20046;-65
2024/01/27 03:40:53;;;;;;;9.80;1.27;;;;;;;6.43;93.33;101927.91;4989467;28;20424;-65
2024/01/27 03:43:21;;;;;;;14.43;1.00;;;;;;;6.41;93.38;101929.28;4989241;28;20047;-64
2024/01/27 03:45:48;;;;;;;6.25;1.10;;;;;;;6.39;93.49;101924.06;4989077;28;20050;-64
2024/01/27 03:48:15;;;;;;;9.02;1.33;;;;;;;6.40;93.44;101927.66;4989218;28;20046;-64
2024/01/27 03:50:43;;;;;;;3.03;0.80;;;;;;;6.39;93.31;101926.81;4989481;28;20053;-64
2024/01/27 03:53:10;;;;;;;3.55;0.70;;;;;;;6.39;93.46;101937.81;4988210;28;20050;-64
2024/01/27 03:55:37;;;;;;;1.92;0.68;;;;;;;6.39;93.55;101935.06;4989462;28;20054;-63
2024/01/27 03:58:05;;;;;;;2.90;1.23;;;;;;;6.40;93.51;101933.97;4989123;28;20065;-64
2024/01/27 04:00:33;;;;;;;10.98;1.00;;;;;;;6.41;93.48;101915.53;4989014;28;20054;-64
2024/01/27 04:03:01;;;;;;;9.40;0.90;;;;;;;6.42;93.49;101914.41;4987980;28;20059;-64
2024/01/27 04:05:29;;;;;;;3.72;0.68;;;;;;;6.43;93.50;101914.16;5004357;28;20516;-63
2024/01/27 04:07:57;;;;;;;7.72;0.75;;;;;;;6.45;93.68;101908.34;4987430;28;20105;-63
2024/01/27 04:10:25;;;;;;;9.30;1.00;;;;;;;6.46;93.47;101904.50;4986875;28;20046;-64
2024/01/27 04:12:52;;;;;;;4.18;0.80;;;;;;;6.46;93.48;101915.50;4987954;28;20050;-64
2024/01/27 04:15:19;;;;;;;4.55;0.63;;;;;;;6.44;93.56;101918.53;4988554;28;20041;-63
2024/01/27 04:17:47;;;;;;;3.75;1.30;;;;;;;6.44;93.63;101906.69;4988812;28;20698;-64
2024/01/27 04:20:14;;;;;;;7.63;0.55;;;;;;;6.44;93.61;101913.03;4987956;28;20054;-65
2024/01/27 04:22:42;;;;;;;5.55;1.52;;;;;;;6.44;93.62;101913.03;4987703;28;20061;-64
2024/01/27 04:25:09;;;;;;;8.07;0.52;;;;;;;6.44;93.63;101915.78;4988307;28;20053;-63
2024/01/27 04:27:42;;;;;;;4.57;0.70;;;;;;;6.45;93.40;101914.69;4991656;28;20054;-64
2024/01/27 04:30:11;;;;;;;3.33;0.68;;;;;;;6.47;93.51;101917.94;4988061;28;20408;-64
2024/01/27 04:32:38;;;;;;;5.68;0.40;;;;;;;6.49;93.36;101909.41;4989521;28;20072;-63
2024/01/27 04:35:10;;;;;;;2.95;0.85;;;;;;;6.49;93.32;101910.22;4986230;28;20046;-64
2024/01/27 04:37:38;;;;;;;6.00;0.65;;;;;;;6.49;93.36;101912.97;4987958;28;20046;-64
2024/01/27 04:40:05;;;;;;;3.05;1.50;;;;;;;6.50;93.36;101908.28;4989079;28;20120;-63
2024/01/27 04:42:34;;;;;;;4.20;0.90;;;;;;;6.49;93.27;101921.22;4987950;28;20080;-64
2024/01/27 04:45:01;;;;;;;5.45;0.63;;;;;;;6.49;93.27;101904.72;4988398;28;20058;-63
2024/01/27 04:47:30;;;;;;;1.88;0.45;;;;;;;6.49;93.47;101903.91;5003308;28;20104;-63
2024/01/27 04:49:58;;;;;;;2.70;0.75;;;;;;;6.48;93.43;101908.59;4988405;28;20047;-64
2024/01/27 04:52:26;;;;;;;3.47;1.17;;;;;;;6.49;93.50;101901.97;4988495;28;20562;-64
2024/01/27 04:54:53;;;;;;;2.47;0.40;;;;;;;6.50;93.36;101911.88;4988297;28;20058;-64
2024/01/27 04:57:20;;;;;;;1.98;0.47;;;;;;;6.49;93.47;101910.22;4987834;28;20050;-64
2024/01/27 04:59:48;;;;;;;4.38;1.45;;;;;;;6.49;93.48;101907.47;4988574;28;20050;-63
2024/01/27 05:02:15;;;;;;;11.45;2.10;;;;;;;6.48;93.33;101902.28;4986888;28;20415;-63
2024/01/27 05:04:43;;;;;;;3.75;0.85;;;;;;;6.46;93.27;101905.28;4988878;28;20057;-63
2024/01/27 05:07:10;;;;;;;4.20;0.90;;;;;;;6.46;93.66;101905.28;4987038;28;20052;-63
2024/01/27 05:09:38;;;;;;;2.72;0.82;;;;;;;6.46;93.35;101904.50;4988228;28;20054;-64
2024/01/27 05:12:05;;;;;;;5.40;1.23;;;;;;;6.47;93.36;101900.63;4986146;28;20569;-65
2024/01/27 05:14:32;;;;;;;7.20;0.90;;;;;;;6.48;93.53;101907.78;4986792;28;20057;-64
2024/01/27 05:17:00;;;;;;;1.50;0.57;;;;;;;6.48;93.44;101905.84;4987754;28;20536;-63
2024/01/27 05:19:27;;;;;;;8.93;0.65;;;;;;;6.50;93.34;101919.31;4988146;28;20447;-63
2024/01/27 05:21:54;;;;;;;10.68;1.05;;;;;;;6.51;93.36;101921.75;4988149;28;20077;-63
2024/01/27 05:24:22;;;;;;;2.45;0.63;;;;;;;6.51;93.49;101915.44;4986862;28;20050;-64
2024/01/27 05:26:49;;;;;;;4.13;0.80;;;;;;;6.51;93.46;101924.50;4987874;28;20058;-64
2024/01/27 05:29:17;;;;;;;2.45;0.85;;;;;;;6.51;93.38;101913.50;4987486;28;20057;-64
2024/01/27 05:31:44;;;;;;;2.25;0.60;;;;;;;6.52;93.40;101909.66;4987386;28;20047;-64
2024/01/27 05:34:11;;;;;;;4.80;0.70;;;;;;;6.52;93.52;101909.66;4985908;28;20057;-64
2024/01/27 05:36:39;;;;;;;3.25;0.75;;;;;;;6.52;93.50;101912.41;4987782;28;20381;-63
2024/01/27 05:39:06;;;;;;;3.92;1.55;;;;;;;6.51;93.39;101913.50;4987456;28;20058;-64
2024/01/27 05:41:34;;;;;;;8.45;0.73;;;;;;;6.52;93.50;101920.66;4986936;28;20045;-64
2024/01/27 05:44:01;;;;;;;6.32;1.25;;;;;;;6.52;93.45;101909.66;4987447;28;20055;-64
2024/01/27 05:46:29;;;;;;;2.70;1.05;;;;;;;6.55;93.68;101913.75;4987149;28;20670;-64
2024/01/27 05:49:01;;;;;;;6.05;1.15;;;;;;;6.56;93.66;101904.41;4987523;28;20065;-64
2024/01/27 05:51:30;;;;;;;2.65;0.68;;;;;;;6.58;93.48;101903.00;4987218;28;20051;-63
2024/01/27 05:53:57;;;;;;;6.20;0.95;;;;;;;6.62;93.54;101911.47;4986398;28;20054;-64
2024/01/27 05:56:25;;;;;;;7.35;1.13;;;;;;;6.63;93.32;101908.44;4986516;28;20709;-64
2024/01/27 05:58:52;;;;;;;6.78;1.10;;;;;;;6.65;93.31;101897.13;4987456;28;20053;-63
2024/01/27 06:01:20;;;;;;;9.52;1.13;;;;;;;6.68;93.04;101885.53;4983701;28;20734;-63
2024/01/27 06:03:47;;;;;;;5.90;0.85;;;;;;;6.70;93.23;101900.66;4987275;28;20408;-64
2024/01/27 06:06:15;;;;;;;7.53;2.25;;;;;;;6.72;93.08;101901.19;4986128;28;20065;-64
2024/01/27 06:08:42;;;;;;;6.88;2.40;;;;;;;6.72;92.96;101906.69;4987143;28;20042;-63
2024/01/27 06:11:10;;;;;;;7.60;1.20;;;;;;;6.73;92.96;101889.06;4996816;28;20051;-63
2024/01/27 06:13:38;;;;;;;6.18;0.80;;;;;;;6.75;93.00;101897.03;4985807;28;20061;-64
2024/01/27 06:16:08;;;;;;;6.70;1.05;;;;;;;6.75;92.81;101891.53;4986792;28;20046;-64
2024/01/27 06:18:37;;;;;;;16.15;2.58;;;;;;;6.75;92.73;101878.59;4983908;28;20054;-63
2024/01/27 06:21:05;;;;;;;4.20;0.93;;;;;;;6.76;92.97;101887.66;4986501;28;20061;-64
2024/01/27 06:23:33;;;;;;;11.60;1.13;;;;;;;6.74;92.76;101892.66;4986367;28;20058;-63
2024/01/27 06:26:07;;;;;;;11.50;2.10;;;;;;;6.75;92.71;101881.34;4986619;28;20034;-64
2024/01/27 06:28:35;;;;;;;5.82;0.90;;;;;;;6.75;92.61;101875.81;4986483;28;20576;-63
2024/01/27 06:31:05;;;;;;;6.13;1.33;;;;;;;6.76;92.65;101887.66;4986773;28;20072;-63
2024/01/27 06:33:34;;;;;;;3.67;1.08;;;;;;;6.75;92.18;101880.53;4986227;28;20060;-64
2024/01/27 06:36:02;;;;;;;35.42;4.45;;;;;;;6.76;92.49;101876.66;4986732;28;20054;-63
2024/01/27 06:38:31;;;;;;;6.57;1.00;;;;;;;6.75;92.39;101869.53;4986029;28;20050;-64
2024/01/27 06:40:58;;;;;;;12.82;3.00;;;;;;;6.74;92.19;101874.22;4986338;28;20057;-63
2024/01/27 06:43:26;;;;;;;7.82;0.90;;;;;;;6.74;92.40;101881.63;4986901;28;20054;-64
2024/01/27 06:45:54;;;;;;;13.02;1.58;;;;;;;6.72;92.36;101876.41;4986376;28;20057;-63
2024/01/27 06:48:22;;;;;;;6.80;1.20;;;;;;;6.70;92.33;101873.13;4986231;28;20054;-63
2024/01/27 06:50:49;;;;;;;6.82;1.00;;;;;;;6.68;92.40;101864.34;4975241;28;20046;-64
2024/01/27 06:53:18;;;;;;;7.50;1.58;;;;;;;6.70;92.45;101872.31;4986376;28;20578;-64
2024/01/27 06:55:46;;;;;;;7.93;1.25;;;;;;;6.70;92.33;101856.63;4986520;28;20522;-63
2024/01/27 06:58:13;;;;;;;5.50;0.77;;;;;;;6.71;92.20;101863.78;4986889;28;20042;-64
2024/01/27 07:00:40;;;;;;;9.05;1.50;;;;;;;6.72;92.14;101865.41;4985813;28;20049;-64
2024/01/27 07:03:09;;;;;;;2.92;0.80;;;;;;;6.72;92.11;101865.41;4986490;28;20146;-64
2024/01/27 07:05:40;;;;;;;6.97;1.27;;;;;;;6.71;92.04;101863.78;4987535;28;20061;-63
2024/01/27 07:08:09;;;;;;;6.80;1.48;;;;;;;6.71;92.26;101868.47;4985874;28;20054;-63
2024/01/27 07:10:36;;;;;;;6.60;1.48;;;;;;;6.68;92.07;101858.84;5008998;28;20046;-63
2024/01/27 07:13:06;;;;;;;8.68;1.40;;;;;;;6.67;92.05;101865.47;4986160;28;20422;-64
2024/01/27 07:15:33;;;;;;;5.70;1.65;;;;;;;6.65;92.13;101862.19;5000769;28;20050;-64
2024/01/27 07:18:00;;;;;;;8.73;1.20;;;;;;;6.65;91.99;101858.59;4985734;28;20085;-63
2024/01/27 07:20:29;;;;;;;11.95;1.20;;;;;;;6.65;91.93;101867.69;4986371;28;20113;-64
2024/01/27 07:22:56;;;;;;;5.93;1.08;;;;;;;6.64;91.97;101865.25;4986665;28;20058;-63
2024/01/27 07:25:23;;;;;;;9.25;1.05;;;;;;;6.62;91.98;101860.00;4984130;28;20523;-63
2024/01/27 07:27:51;;;;;;;6.93;1.67;;;;;;;6.59;92.03;101863.34;4986605;28;20050;-63
2024/01/27 07:30:18;;;;;;;8.55;2.33;;;;;;;6.59;91.97;101871.59;4986797;28;20121;-63
2024/01/27 07:32:46;;;;;;;18.25;5.30;;;;;;;6.57;91.97;101868.31;4987859;28;20057;-63
2024/01/27 07:35:13;;;;;;;6.25;0.90;;;;;;;6.55;91.91;101865.06;4985599;28;20057;-63
2024/01/27 07:37:43;;;;;;;7.97;2.00;;;;;;;6.56;91.93;101876.88;4988526;28;20765;-63
2024/01/27 07:40:10;;;;;;;10.88;2.00;;;;;;;6.56;92.04;101863.94;4989940;28;20519;-64
2024/01/27 07:42:38;;;;;;;4.75;1.55;;;;;;;6.56;91.80;101861.19;4990165;28;20053;-63
2024/01/27 07:45:05;;;;;;;3.72;1.50;;;;;;;6.56;91.92;101866.69;5004643;28;20053;-63
2024/01/27 07:47:33;;;;;;;6.80;2.95;;;;;;;6.58;91.90;101869.16;4989760;28;20089;-63
2024/01/27 07:50:00;;;;;;;11.43;2.28;;;;;;;6.58;91.96;101864.47;4990937;28;20061;-63
2024/01/27 07:52:28;;;;;;;3.50;1.08;;;;;;;6.61;92.11;101871.31;4989667;28;20049;-63
2024/01/27 07:54:55;;;;;;;5.22;1.35;;;;;;;6.62;92.09;101865.50;4988082;28;20133;-64
2024/01/27 07:57:22;;;;;;;8.75;2.17;;;;;;;6.61;92.17;101866.66;4986849;28;20053;-64
2024/01/27 07:59:50;;;;;;;8.23;1.67;;;;;;;6.63;92.17;101867.16;4985671;28;20061;-63
2024/01/27 08:02:17;;;;;;;7.18;1.17;;;;;;;6.65;92.14;101864.94;4988974;28;20515;-63
2024/01/27 08:04:44;;;;;;;3.53;0.98;;;;;;;6.67;92.38;101854.44;4989121;28;20049;-64
2024/01/27 08:07:14;;;;;;;4.07;1.35;;;;;;;6.71;92.21;101863.78;4987951;28;20042;-63
2024/01/27 08:09:42;;;;;;;7.10;1.48;;;;;;;6.73;92.09;101860.72;4988509;28;20046;-63
2024/01/27 08:12:13;;;;;;;7.93;2.05;;;;;;;6.75;91.89;101853.00;4981838;28;20061;-60
2024/01/27 08:14:40;;;;;;;8.68;1.35;;;;;;;6.75;92.28;101834.53;4989901;28;20054;-62
2024/01/27 08:17:17;;;;;;;13.45;2.88;;;;;;;6.76;92.13;101843.63;4988428;28;20058;-61
2024/01/27 08:19:45;;;;;;;4.60;1.25;;;;;;;6.76;92.15;101829.88;4989209;28;20094;-66
2024/01/27 08:22:16;;;;;;;3.92;1.38;;;;;;;6.78;92.15;101826.84;4987255;28;20045;-61
2024/01/27 08:24:46;;;;;;;8.25;2.22;;;;;;;6.80;92.45;101832.88;4988666;28;20051;-61
2024/01/27 08:27:14;;;;;;;12.40;2.42;;;;;;;6.81;92.42;101831.72;4988868;28;20049;-62
2024/01/27 08:29:41;;;;;;;10.05;2.42;;;;;;;6.82;92.24;101825.13;4988546;28;20050;-62
2024/01/27 08:32:09;;;;;;;12.15;2.80;;;;;;;6.84;92.35;101829.22;4988043;28;20054;-61
2024/01/27 08:34:39;;;;;;;6.65;2.97;;;;;;;6.86;92.39;101828.94;4987304;28;20062;-63
2024/01/27 08:37:20;;;;;;;6.50;1.33;;;;;;;6.88;92.36;101829.47;4987287;28;20104;-63
2024/01/27 08:39:48;;;;;;;10.95;1.92;;;;;;;6.89;92.31;101809.06;4988793;28;20042;-63
2024/01/27 08:42:15;;;;;;;6.47;1.80;;;;;;;6.93;92.31;101818.38;4986632;28;20404;-64
2024/01/27 08:44:43;;;;;;;6.68;2.08;;;;;;;6.95;92.17;101810.66;4988985;28;20038;-62
2024/01/27 08:47:10;;;;;;;7.72;1.40;;;;;;;6.97;92.36;101805.66;4988709;28;20042;-62
2024/01/27 08:49:37;;;;;;;13.00;1.50;;;;;;;6.98;92.26;101810.06;4987611;28;20512;-62
2024/01/27 08:52:06;;;;;;;7.72;1.92;;;;;;;7.00;92.32;101802.31;4988805;28;20058;-62
2024/01/27 08:54:33;;;;;;;16.83;2.40;;;;;;;7.03;92.25;101801.72;4970760;28;20555;-62
2024/01/27 08:57:01;;;;;;;6.85;1.77;;;;;;;7.04;92.28;101812.44;4988583;28;20054;-62
2024/01/27 08:59:28;;;;;;;18.00;2.95;;;;;;;7.06;92.11;101799.22;4988405;28;20046;-63
2024/01/27 09:01:56;;;;;;;8.15;2.08;;;;;;;7.10;92.19;101802.16;4987838;28;20077;-62
2024/01/27 09:04:23;;;;;;;7.88;1.40;;;;;;;7.13;92.23;101805.16;4987776;28;20061;-62
2024/01/27 09:06:50;;;;;;;7.38;1.55;;;;;;;7.16;91.97;101798.25;4988285;28;20042;-62
2024/01/27 09:09:18;;;;;;;8.80;1.63;;;;;;;7.19;92.01;101786.63;4984937;28;20038;-62
2024/01/27 09:11:46;;;;;;;10.48;1.65;;;;;;;7.20;91.98;101794.59;4982944;28;20408;-62
2024/01/27 09:14:14;;;;;;;10.32;1.58;;;;;;;7.24;91.94;101792.06;4994139;28;20053;-62
2024/01/27 09:16:41;;;;;;;11.45;1.52;;;;;;;7.28;91.89;101784.88;5004228;28;20050;-62
2024/01/27 09:19:08;;;;;;;12.73;2.05;;;;;;;7.32;91.95;101785.88;4988142;28;20084;-63
2024/01/27 09:21:36;;;;;;;13.73;2.05;;;;;;;7.35;91.95;101782.53;4987146;28;20407;-63
2024/01/27 09:24:05;;;;;;;10.30;1.70;;;;;;;7.36;91.82;101764.88;4970066;28;20142;-63
2024/01/27 09:26:33;;;;;;;13.40;1.83;;;;;;;7.37;92.07;101774.78;4986084;28;20053;-61
2024/01/27 09:29:00;;;;;;;8.50;1.80;;;;;;;7.42;92.04;101784.91;4987764;28;20137;-63
2024/01/27 09:31:28;;;;;;;15.27;2.25;;;;;;;7.42;92.16;101774.72;4987055;28;20134;-63
2024/01/27 09:33:55;;;;;;;9.63;2.38;;;;;;;7.44;92.08;101772.47;4987908;28;20419;-62
2024/01/27 09:36:23;;;;;;;11.63;2.63;;;;;;;7.48;92.18;101768.00;4986772;28;20057;-63
2024/01/27 09:38:52;;;;;;;5.88;1.70;;;;;;;7.52;92.13;101769.03;4987414;28;20039;-63
2024/01/27 09:41:19;;;;;;;7.60;2.85;;;;;;;7.57;92.01;101774.47;4987026;28;20050;-62
2024/01/27 09:43:47;;;;;;;11.40;2.90;;;;;;;7.60;91.97;101771.13;4986179;28;20077;-62
2024/01/27 09:46:16;;;;;;;10.70;1.85;;;;;;;7.65;92.14;101789.53;4998507;28;21116;-63
2024/01/27 09:48:44;;;;;;;13.27;2.15;;;;;;;7.68;92.13;101795.25;4968502;28;20042;-63
2024/01/27 09:51:14;;;;;;;14.82;1.92;;;;;;;7.73;92.03;101791.59;5001906;28;20057;-62
2024/01/27 09:53:42;;;;;;;21.40;3.22;;;;;;;7.76;91.96;101794.56;4985411;28;20050;-64
2024/01/27 09:56:10;;;;;;;9.93;1.90;;;;;;;7.79;92.13;101784.88;4985836;28;20538;-61
2024/01/27 09:58:38;;;;;;;16.17;3.67;;;;;;;7.82;92.17;101785.09;4986825;28;20054;-62
2024/01/27 10:01:08;;;;;;;7.28;1.67;;;;;;;7.86;91.87;101801.84;4985534;28;20062;-61
2024/01/27 10:03:41;;;;;;;18.70;2.75;;;;;;;7.88;92.03;101803.19;4986157;28;20451;-62
2024/01/27 10:06:09;;;;;;;13.38;2.50;;;;;;;7.92;91.99;101812.47;4998805;28;20053;-61
2024/01/27 10:08:37;;;;;;;12.30;2.00;;;;;;;7.95;91.97;101817.41;4982054;28;20043;-64
2024/01/27 10:11:10;;;;;;;15.00;3.65;;;;;;;7.98;91.83;101818.72;4989598;28;20055;-61
2024/01/27 10:13:40;;;;;;;12.50;3.53;;;;;;;8.03;91.93;101817.81;4987335;28;20050;-61
2024/01/27 10:16:09;;;;;;;19.65;4.00;;;;;;;8.08;91.74;101820.50;4986081;28;20051;-62
2024/01/27 10:18:37;;;;;;;9.85;2.40;;;;;;;8.12;91.67;101832.56;4983424;28;20056;-61
2024/01/27 10:21:19;;;;;;;13.68;3.47;;;;;;;8.17;91.69;101824.19;4985240;28;20054;-62
2024/01/27 10:23:47;;;;;;;8.88;2.50;;;;;;;8.21;91.67;101814.19;5001101;28;20531;-61
2024/01/27 10:26:14;;;;;;;13.20;2.22;;;;;;;8.25;91.72;101804.19;4981010;28;20424;-62
2024/01/27 10:28:42;;;;;;;12.52;2.90;;;;;;;8.27;91.80;101813.00;4987053;28;20499;-62
2024/01/27 10:31:10;;;;;;;13.85;2.13;;;;;;;8.31;91.46;101809.34;4986970;28;20077;-63
2024/01/27 10:33:38;;;;;;;11.45;2.47;;;;;;;8.33;91.45;101806.28;4987743;28;20578;-63
2024/01/27 10:36:06;;;;;;;11.68;2.63;;;;;;;8.34;91.62;101816.22;4987525;28;20043;-62
2024/01/27 10:38:38;;;;;;;11.65;2.47;;;;;;;8.35;91.40;101821.41;4987461;28;20042;-63
2024/01/27 10:41:12;;;;;;;;;;;;;;;8.35;91.16;101823.34;4986877;28;20555;-64
2024/01/27 10:43:39;;;;;;;12.38;1.75;;;;;;;8.37;91.31;101824.69;4990117;28;19926;-62
2024/01/27 10:46:08;;;;;;;10.55;1.92;;;;;;;8.38;91.25;101836.53;4986923;28;20058;-61
2024/01/27 10:48:39;;;;;;;12.73;2.92;;;;;;;8.40;91.27;101828.75;4980193;28;20058;-61
2024/01/27 10:51:10;;;;;;;13.33;1.80;;;;;;;8.40;91.31;101817.72;4986424;28;21327;-61
2024/01/27 10:53:41;;;;;;;13.23;2.25;;;;;;;8.42;91.22;101816.31;4983122;28;20057;-61
2024/01/27 10:56:10;;;;;;;13.82;2.55;;;;;;;8.45;91.15;101796.38;5001062;28;20100;-62
2024/01/27 10:58:43;;;;;;;11.18;2.47;;;;;;;8.48;91.10;101808.75;4987281;28;20804;-62
2024/01/27 11:01:11;;;;;;;11.98;2.10;;;;;;;8.52;91.01;101804.28;4986473;28;20061;-61
2024/01/27 11:03:40;;;;;;;14.48;2.17;;;;;;;8.54;90.78;101802.00;4986407;28;20053;-61
2024/01/27 11:06:08;;;;;;;13.70;2.47;;;;;;;8.56;90.86;101808.03;4987591;28;20042;-61
2024/01/27 11:08:38;;;;;;;27.73;3.53;;;;;;;8.58;90.99;101801.09;4986837;28;20082;-63
2024/01/27 11:11:11;;;;;;;15.27;2.33;;;;;;;8.61;90.90;101791.38;4984767;28;20808;-61
2024/01/27 11:13:39;;;;;;;15.73;3.75;;;;;;;8.62;90.44;101795.78;4990855;28;20415;-62
2024/01/27 11:16:16;;;;;;;18.48;4.90;;;;;;;8.64;90.72;101776.97;4990598;28;20073;-62
2024/01/27 11:18:44;;;;;;;8.02;2.15;;;;;;;8.68;90.75;101778.00;4991174;28;20057;-61
2024/01/27 11:21:18;;;;;;;15.23;2.42;;;;;;;8.72;90.75;101779.00;4990800;28;20057;-62
2024/01/27 11:23:47;;;;;;;20.85;3.10;;;;;;;8.75;90.65;101775.63;4990430;28;20046;-63
2024/01/27 11:26:20;;;;;;;13.38;2.55;;;;;;;8.79;90.62;101770.31;4990339;28;20048;-62
2024/01/27 11:28:49;;;;;;;12.07;2.28;;;;;;;8.81;90.57;101751.50;4990868;28;20054;-62
2024/01/27 11:31:21;;;;;;;15.93;2.38;;;;;;;8.83;90.56;101763.88;4990235;28;20058;-62
2024/01/27 11:33:52;;;;;;;11.30;2.72;;;;;;;8.84;90.46;101773.78;4990195;28;20528;-60
2024/01/27 11:36:24;;;;;;;12.65;2.63;;;;;;;8.86;90.39;101777.06;4982026;28;20562;-61